CPT2 weather

Killarney Airport
Killarney, Ontario, Canada

Public forecast

Using degrees Celsius for public forecast. Weather courtesy of forecast.io.

Closest aviation weather report (METAR) to Killarney Airport

Closest report is Gore Bay Manitoulin Airport, 45.2 nm (83.6 km) W. Retrieved 2020/08/08 00:00 UTC (7 minutes ago):

CYZE 080000Z AUTO 21007KT 9SM CLR 22/14 A3013 RMK SLP206 DENSITY ALT 1300FT

Closest aviation forecast (TAF) to Killarney Airport

Closest forecast is Gore Bay Manitoulin Airport, 45.2 nm (83.6 km) W. Retrieved 2020/08/07 20:00 UTC (4 hours ago):

TAF CYZE 071938Z 0720/0722 23007KT P6SM SKC RMK FCST BASED ON AUTO OBS NXT FCST WILL BE ISSUED AT 080945Z